Time;durP1;ratioP1;P1;durP2;ratioP2;P2;SDS_P1;SDS_P2;PMS_P1;PMS_P2;Temp;Humidity;BMP_temperature;BMP_pressure;BME280_temperature;BME280_humidity;BME280_pressure;Samples;Min_cycle;Max_cycle;Signal;HPM_P1;HPM_P2
2021/12/25 00:01:49;;;;;;;24.43;13.80;;;;;;;4.06;74.39;94805.31;5056758;28;20804;-72
2021/12/25 00:04:16;;;;;;;23.02;12.65;;;;;;;4.06;74.25;94807.84;5057560;28;20207;-69
2021/12/25 00:06:42;;;;;;;25.27;14.87;;;;;;;3.92;75.02;94819.75;5057592;28;20260;-73
2021/12/25 00:09:09;;;;;;;27.10;13.80;;;;;;;3.85;75.18;94818.16;5056848;28;20731;-72
2021/12/25 00:11:38;;;;;;;19.25;12.82;;;;;;;3.68;75.42;94820.03;5057096;28;20226;-73
2021/12/25 00:14:10;;;;;;;24.07;14.40;;;;;;;3.57;76.52;94824.34;5057046;28;20201;-73
2021/12/25 00:16:38;;;;;;;31.02;14.57;;;;;;;3.41;76.49;94821.16;5056648;28;20194;-70
2021/12/25 00:19:05;;;;;;;28.97;14.80;;;;;;;3.32;76.72;94836.31;5056540;28;20207;-70
2021/12/25 00:21:32;;;;;;;27.20;14.97;;;;;;;3.49;76.66;94841.16;5056672;28;20198;-70
2021/12/25 00:23:59;;;;;;;23.87;13.30;;;;;;;3.30;76.81;94846.38;5056842;28;20287;-70
2021/12/25 00:26:39;;;;;;;24.83;13.37;;;;;;;3.23;77.72;94862.31;5055584;28;20680;-73
2021/12/25 00:29:30;;;;;;;24.97;13.93;;;;;;;3.15;77.78;94859.06;5057026;28;20194;-72
2021/12/25 00:32:10;;;;;;;28.33;15.00;;;;;;;3.21;76.79;94843.97;5056203;28;20226;-69
2021/12/25 00:34:38;;;;;;;24.50;13.97;;;;;;;3.05;77.41;94845.75;5055767;28;20268;-70
2021/12/25 00:37:06;;;;;;;29.37;13.63;;;;;;;3.19;77.16;94845.66;5055534;28;20210;-71
2021/12/25 00:39:33;;;;;;;24.15;13.95;;;;;;;3.12;77.67;94853.25;5055471;28;20237;-70
2021/12/25 00:42:01;;;;;;;27.73;14.70;;;;;;;2.99;77.87;94867.56;5054459;28;20255;-72
2021/12/25 00:44:30;;;;;;;23.60;13.17;;;;;;;3.04;77.92;94863.34;5057072;28;20210;-70
2021/12/25 00:46:58;;;;;;;22.60;13.63;;;;;;;3.38;76.46;94862.22;5054961;28;20289;-72
2021/12/25 00:49:26;;;;;;;21.40;12.33;;;;;;;3.38;76.50;94859.69;5055168;28;20203;-71
2021/12/25 00:51:53;;;;;;;20.77;13.47;;;;;;;3.41;76.37;94851.31;5055910;28;20697;-73
2021/12/25 00:54:20;;;;;;;21.93;12.53;;;;;;;3.01;77.79;94841.59;5055513;28;20547;-71
2021/12/25 00:56:47;;;;;;;19.98;11.68;;;;;;;3.11;78.09;94852.41;5056066;28;20259;-71
2021/12/25 00:59:13;;;;;;;22.70;12.68;;;;;;;3.15;77.38;94858.25;5056391;28;20202;-71
2021/12/25 01:01:42;;;;;;;20.67;11.35;;;;;;;3.17;77.53;94832.28;5054850;28;20260;-72
2021/12/25 01:04:09;;;;;;;20.33;10.60;;;;;;;3.10;77.98;94843.22;5056389;28;20202;-70
2021/12/25 01:06:36;;;;;;;20.33;11.48;;;;;;;3.06;78.42;94854.94;5056475;28;20265;-72
2021/12/25 01:09:04;;;;;;;20.37;11.60;;;;;;;3.02;78.21;94848.28;5055943;28;20190;-73
2021/12/25 01:11:32;;;;;;;18.42;10.82;;;;;;;2.94;78.87;94856.75;5056450;28;20237;-71
2021/12/25 01:14:05;;;;;;;16.17;11.00;;;;;;;2.92;78.63;94840.84;5057052;28;20244;-71
2021/12/25 01:17:10;;;;;;;15.40;11.02;;;;;;;3.01;78.32;94845.78;5056126;28;21150;-73
2021/12/25 01:22:27;;;;;;;19.47;10.80;;;;;;;2.84;79.42;94840.06;5055893;28;20332;-71
2021/12/25 01:25:19;;;;;;;15.03;10.37;;;;;;;2.73;79.95;94835.94;5055665;28;21066;-72
2021/12/25 01:30:34;;;;;;;13.75;9.20;;;;;;;3.03;79.50;94827.34;5054471;28;20261;-73
2021/12/25 01:33:23;;;;;;;17.27;10.43;;;;;;;3.01;78.87;94831.56;5055685;28;20743;-70
2021/12/25 01:38:55;;;;;;;18.30;11.07;;;;;;;3.18;77.09;94831.44;5051113;28;20228;-71
2021/12/25 01:41:43;;;;;;;16.90;9.98;;;;;;;3.32;76.97;94831.28;5055186;28;20202;-72
2021/12/25 01:49:40;;;;;;;18.43;9.80;;;;;;;3.20;77.53;94836.44;5055709;28;20617;-69
2021/12/25 01:52:09;;;;;;;15.27;9.93;;;;;;;3.29;76.85;94827.13;5055077;28;20229;-71
2021/12/25 01:54:35;;;;;;;17.02;11.02;;;;;;;3.24;77.23;94818.78;5054624;28;20211;-73
2021/12/25 01:57:03;;;;;;;22.55;11.13;;;;;;;3.13;77.67;94820.59;5055134;28;20206;-71
2021/12/25 01:59:29;;;;;;;18.85;10.43;;;;;;;3.01;77.48;94819.00;5056280;28;20210;-72
2021/12/25 02:01:56;;;;;;;21.53;11.87;;;;;;;2.71;79.46;94815.09;5055226;28;20260;-71
2021/12/25 02:04:23;;;;;;;13.90;9.23;;;;;;;2.65;80.38;94822.66;5055207;28;20294;-72
2021/12/25 02:06:50;;;;;;;21.53;11.30;;;;;;;2.68;80.55;94812.59;5055075;28;21438;-71
2021/12/25 02:09:18;;;;;;;16.93;11.87;;;;;;;2.92;79.07;94809.06;5055225;28;20293;-72
2021/12/25 02:11:45;;;;;;;15.70;10.50;;;;;;;3.06;78.74;94808.94;5054824;28;20299;-72
2021/12/25 02:14:13;;;;;;;24.47;13.50;;;;;;;3.18;77.98;94818.03;5055820;28;20812;-72
2021/12/25 02:16:51;;;;;;;19.87;11.07;;;;;;;3.31;77.75;94814.56;5054911;28;20595;-73
2021/12/25 02:19:31;;;;;;;21.87;10.70;;;;;;;3.53;76.84;94807.63;5054644;28;20232;-72
2021/12/25 02:22:01;;;;;;;15.07;9.77;;;;;;;3.56;76.86;94815.13;5055646;28;20673;-73
2021/12/25 02:24:28;;;;;;;19.40;11.50;;;;;;;3.40;76.97;94804.44;5055318;28;20203;-73
2021/12/25 02:26:55;;;;;;;18.93;11.80;;;;;;;3.48;77.11;94809.34;5054614;28;20206;-73
2021/12/25 02:29:22;;;;;;;16.83;10.77;;;;;;;3.53;76.89;94810.97;5054727;28;20234;-73
2021/12/25 02:31:49;;;;;;;18.13;10.23;;;;;;;3.29;77.81;94802.00;5055144;28;20214;-72
2021/12/25 02:34:16;;;;;;;15.40;10.63;;;;;;;3.47;77.62;94805.16;5055264;28;20809;-70
2021/12/25 02:36:43;;;;;;;16.07;10.97;;;;;;;3.30;77.64;94803.69;5054363;28;20972;-72
2021/12/25 02:39:12;;;;;;;18.77;11.03;;;;;;;3.19;78.55;94810.50;5055279;28;20748;-70
2021/12/25 02:41:38;;;;;;;13.63;10.07;;;;;;;3.34;77.86;94800.28;5054556;28;20284;-73
2021/12/25 02:44:06;;;;;;;17.83;10.38;;;;;;;3.40;78.04;94805.25;5054446;28;20210;-73
2021/12/25 02:46:33;;;;;;;25.13;11.63;;;;;;;3.29;78.19;94801.19;5055331;28;20205;-71
2021/12/25 02:49:00;;;;;;;17.23;10.65;;;;;;;3.50;77.95;94788.41;5054971;28;20828;-73
2021/12/25 02:51:27;;;;;;;21.13;11.63;;;;;;;3.56;77.30;94800.06;5055079;28;20360;-71
2021/12/25 02:53:54;;;;;;;17.30;10.33;;;;;;;3.62;76.83;94815.91;5054703;28;20347;-73
2021/12/25 02:56:22;;;;;;;14.10;8.97;;;;;;;3.85;76.37;94807.28;5054869;28;20273;-73
2021/12/25 02:58:49;;;;;;;8.87;6.87;;;;;;;4.10;75.29;94796.06;5056383;28;20689;-73
2021/12/25 03:01:18;;;;;;;17.73;10.70;;;;;;;3.85;75.90;94808.09;5059181;28;20252;-72
2021/12/25 03:03:46;;;;;;;20.02;11.15;;;;;;;3.81;76.03;94801.44;5059243;28;20689;-73
2021/12/25 03:06:13;;;;;;;20.48;10.98;;;;;;;3.53;77.16;94810.13;5058854;28;20714;-71
2021/12/25 03:08:41;;;;;;;16.50;9.90;;;;;;;3.53;77.71;94795.06;5057977;28;20283;-70
2021/12/25 03:11:08;;;;;;;17.20;10.27;;;;;;;3.78;76.35;94801.47;5058237;28;20338;-71
2021/12/25 03:13:44;;;;;;;16.73;10.57;;;;;;;3.91;76.27;94798.00;5059145;28;20286;-73
2021/12/25 03:16:12;;;;;;;13.63;9.67;;;;;;;3.74;76.86;94804.88;5058089;28;20202;-71
2021/12/25 03:18:45;;;;;;;19.83;10.37;;;;;;;3.60;77.17;94801.69;5058746;28;20672;-72
2021/12/25 03:21:16;;;;;;;21.00;11.27;;;;;;;3.52;78.03;94811.00;5058730;28;20201;-69
2021/12/25 03:23:43;;;;;;;15.13;9.97;;;;;;;3.83;77.13;94814.84;5057907;28;20205;-73
2021/12/25 03:26:10;;;;;;;16.90;10.80;;;;;;;3.89;76.23;94808.91;5059016;28;20292;-73
2021/12/25 03:28:43;;;;;;;15.48;10.15;;;;;;;3.96;75.98;94811.31;5057946;28;20207;-72
2021/12/25 03:31:15;;;;;;;14.52;9.15;;;;;;;3.94;76.54;94802.16;5057664;28;20701;-73
2021/12/25 03:33:43;;;;;;;17.77;10.52;;;;;;;4.00;75.99;94792.00;5057753;28;20239;-73
2021/12/25 03:36:10;;;;;;;17.15;9.80;;;;;;;4.00;75.80;94802.06;5057806;28;21096;-72
2021/12/25 03:38:37;;;;;;;16.67;10.73;;;;;;;3.78;76.28;94813.22;5057647;28;20207;-70
2021/12/25 03:41:06;;;;;;;18.02;10.90;;;;;;;3.76;76.92;94808.22;5057694;28;20207;-72
2021/12/25 03:43:33;;;;;;;18.42;11.07;;;;;;;3.91;76.63;94798.00;5058193;28;20584;-72
2021/12/25 03:46:01;;;;;;;13.70;9.77;;;;;;;3.92;76.46;94789.59;5058947;28;20244;-72
2021/12/25 03:48:56;;;;;;;13.82;9.88;;;;;;;3.88;76.49;94794.69;5057204;28;20542;-70
2021/12/25 03:59:47;;;;;;;15.93;10.93;;;;;;;4.08;75.86;94805.31;5058177;28;20206;-70
2021/12/25 04:02:20;;;;;;;15.40;9.40;;;;;;;4.08;75.86;94805.31;5057813;28;20221;-71
2021/12/25 04:04:49;;;;;;;18.37;10.27;;;;;;;3.98;76.30;94809.59;5057451;28;20699;-72
2021/12/25 04:07:37;;;;;;;15.40;10.30;;;;;;;3.92;76.32;94804.69;5057391;28;20202;-73
2021/12/25 04:10:04;;;;;;;20.42;9.55;;;;;;;3.81;77.37;94808.16;5056539;28;20255;-72
2021/12/25 04:12:32;;;;;;;19.47;10.03;;;;;;;3.87;77.30;94806.41;5057555;28;20222;-73
2021/12/25 04:14:59;;;;;;;18.02;10.10;;;;;;;4.02;76.60;94810.41;5057243;28;20238;-70
2021/12/25 04:17:27;;;;;;;17.77;8.90;;;;;;;4.07;76.13;94796.94;5057348;28;20206;-70
2021/12/25 04:19:54;;;;;;;16.73;9.33;;;;;;;4.10;76.08;94806.97;5056674;28;20202;-72
2021/12/25 04:22:27;;;;;;;15.90;9.97;;;;;;;3.97;76.93;94812.97;5056633;28;20206;-72
2021/12/25 04:24:54;;;;;;;16.33;10.43;;;;;;;4.20;75.87;94814.41;5057098;28;20202;-71
2021/12/25 04:27:21;;;;;;;13.23;8.67;;;;;;;3.90;77.06;94818.94;5056572;28;20257;-73
2021/12/25 04:29:52;;;;;;;13.07;9.83;;;;;;;3.87;76.87;94811.44;5056997;28;20284;-71
2021/12/25 05:02:30;;;;;;;16.53;9.20;;;;;;;3.92;77.44;94834.84;5055998;28;20853;-71
2021/12/25 05:05:01;;;;;;;17.57;9.50;;;;;;;3.75;77.90;94839.22;5056848;28;20293;-71
2021/12/25 05:07:29;;;;;;;15.48;9.55;;;;;;;4.09;77.13;94837.97;5056268;28;20214;-72
2021/12/25 05:09:57;;;;;;;14.63;9.83;;;;;;;4.19;76.50;94832.84;5055247;28;20861;-72
2021/12/25 05:12:23;;;;;;;21.23;9.93;;;;;;;4.23;76.29;94842.00;5056363;28;20226;-73
2021/12/25 05:14:50;;;;;;;15.02;9.73;;;;;;;3.83;77.79;94857.56;5056480;28;20217;-72
2021/12/25 05:17:17;;;;;;;13.23;9.90;;;;;;;3.70;78.27;94851.03;5055954;28;20202;-71
2021/12/25 05:19:44;;;;;;;15.77;10.80;;;;;;;3.74;78.78;94855.13;5056580;28;20202;-72
2021/12/25 05:22:14;;;;;;;16.60;9.95;;;;;;;3.93;78.02;94851.59;5055730;28;20207;-72
2021/12/25 05:24:42;;;;;;;15.65;9.63;;;;;;;4.13;77.31;94861.41;5056036;28;20304;-73
2021/12/25 05:27:08;;;;;;;20.90;9.68;;;;;;;4.30;76.25;94856.16;5055642;28;20264;-73
2021/12/25 05:29:37;;;;;;;11.82;9.40;;;;;;;3.98;77.45;94859.06;5055722;28;20198;-73
2021/12/25 05:32:04;;;;;;;15.13;9.00;;;;;;;3.95;77.88;94857.44;5055934;28;20218;-73
2021/12/25 05:34:31;;;;;;;22.92;9.20;;;;;;;3.99;77.33;94856.53;5054977;28;20263;-70
2021/12/25 05:36:58;;;;;;;16.88;10.02;;;;;;;3.95;78.01;94859.97;5055270;28;20198;-73
2021/12/25 05:39:25;;;;;;;16.17;9.15;;;;;;;4.01;77.51;94859.88;5056066;28;20279;-73
2021/12/25 05:41:53;;;;;;;12.52;9.75;;;;;;;4.04;77.44;94859.00;5055284;28;20265;-73
2021/12/25 05:44:19;;;;;;;12.73;8.53;;;;;;;4.22;76.99;94853.72;5054881;28;20196;-74
2021/12/25 05:46:46;;;;;;;15.32;8.45;;;;;;;4.05;77.23;94865.69;5055295;28;20267;-73
2021/12/25 05:49:13;;;;;;;16.25;8.82;;;;;;;3.89;78.07;94864.22;5055354;28;20208;-73
2021/12/25 05:51:40;;;;;;;13.13;8.40;;;;;;;4.13;77.61;94883.22;5054902;28;20260;-71
2021/12/25 05:54:07;;;;;;;10.90;8.07;;;;;;;4.26;76.82;94879.69;5055473;28;20741;-72
2021/12/25 05:56:33;;;;;;;10.30;7.70;;;;;;;4.10;77.50;94884.06;5056039;28;20202;-72
2021/12/25 05:59:02;;;;;;;12.10;7.55;;;;;;;4.10;77.43;94879.88;5054619;28;20557;-73
2021/12/25 06:01:29;;;;;;;12.80;7.95;;;;;;;4.18;77.10;94886.50;5055248;28;20269;-73
2021/12/25 06:03:56;;;;;;;13.93;8.48;;;;;;;4.25;77.31;94888.09;5055291;28;20218;-73
2021/12/25 06:06:22;;;;;;;9.50;7.53;;;;;;;4.51;75.87;94878.53;5055206;28;20213;-73
2021/12/25 06:08:49;;;;;;;11.25;7.75;;;;;;;4.52;75.62;94870.13;5054319;28;20191;-73
2021/12/25 06:11:17;;;;;;;12.95;8.90;;;;;;;4.50;76.24;94881.88;5055519;28;20265;-71
2021/12/25 06:13:55;;;;;;;9.68;7.53;;;;;;;4.45;75.66;94883.66;5055390;28;20226;-71
2021/12/25 06:16:23;;;;;;;9.63;7.68;;;;;;;4.40;76.27;94882.88;5054896;28;20256;-72
2021/12/25 06:18:50;;;;;;;9.55;7.60;;;;;;;4.51;75.97;94905.38;5055542;28;20263;-74
2021/12/25 06:21:17;;;;;;;11.40;8.13;;;;;;;4.41;76.37;94889.56;5055473;28;20251;-74
2021/12/25 06:23:44;;;;;;;11.00;7.13;;;;;;;4.42;76.15;94876.16;5055137;28;20218;-72
2021/12/25 06:26:10;;;;;;;11.00;8.25;;;;;;;4.35;76.74;94889.66;5055134;28;20606;-73
2021/12/25 06:28:37;;;;;;;13.65;9.25;;;;;;;4.30;76.95;94891.38;5055045;28;20206;-72
2021/12/25 06:31:04;;;;;;;11.02;8.35;;;;;;;4.44;76.82;94889.53;5055214;28;20222;-72
2021/12/25 06:33:32;;;;;;;13.25;8.45;;;;;;;4.31;76.95;94898.06;5054181;28;20211;-74
2021/12/25 06:35:59;;;;;;;17.45;8.77;;;;;;;4.34;77.21;94898.03;5054942;28;20754;-74
2021/12/25 06:38:25;;;;;;;14.27;8.55;;;;;;;4.36;76.90;94894.66;5054152;28;20202;-74
2021/12/25 06:40:52;;;;;;;12.00;8.05;;;;;;;4.54;76.18;94877.66;5054897;28;21384;-73
2021/12/25 06:43:19;;;;;;;10.85;6.82;;;;;;;4.66;75.29;94906.03;5054956;28;20209;-71
2021/12/25 06:45:46;;;;;;;14.30;7.57;;;;;;;4.69;75.94;94905.97;5055019;28;20264;-71
2021/12/25 06:48:12;;;;;;;12.98;9.73;;;;;;;4.82;75.12;94891.53;5054521;28;20275;-70
2021/12/25 06:50:40;;;;;;;14.02;8.02;;;;;;;4.97;74.47;94900.53;5054520;28;20202;-72
2021/12/25 06:53:07;;;;;;;11.10;8.73;;;;;;;5.04;73.79;94912.19;5055194;28;20332;-72
2021/12/25 06:55:34;;;;;;;17.70;8.63;;;;;;;5.08;73.91;94899.53;5054946;28;20242;-73
2021/12/25 06:58:02;;;;;;;14.82;8.43;;;;;;;5.26;73.90;94908.50;5054256;28;20248;-71
2021/12/25 07:00:29;;;;;;;11.77;8.48;;;;;;;5.40;73.43;94895.69;5054833;28;20203;-73
2021/12/25 07:02:57;;;;;;;22.00;12.70;;;;;;;5.16;73.51;94922.09;5054639;28;20673;-71
2021/12/25 07:05:24;;;;;;;14.77;9.15;;;;;;;5.26;73.27;94926.13;5054916;28;20224;-71
2021/12/25 07:07:52;;;;;;;14.77;9.57;;;;;;;5.67;72.61;94920.44;5053969;28;20644;-70
2021/12/25 07:10:20;;;;;;;14.88;10.00;;;;;;;6.51;70.24;94938.25;5055056;28;20681;-72
2021/12/25 07:12:49;;;;;;;17.55;9.48;;;;;;;7.30;66.32;94923.91;5054045;28;20689;-72
2021/12/25 07:15:17;;;;;;;16.10;9.95;;;;;;;7.42;65.55;94924.44;5054446;28;20230;-72
2021/12/25 07:17:44;;;;;;;15.60;8.98;;;;;;;6.68;67.76;94936.25;5054549;28;20409;-72
2021/12/25 07:20:11;;;;;;;13.85;9.65;;;;;;;6.46;68.37;94923.19;5054101;28;20761;-72
2021/12/25 07:22:38;;;;;;;11.02;8.07;;;;;;;6.49;67.71;94928.19;5054726;28;20203;-73
2021/12/25 07:25:08;;;;;;;16.58;9.68;;;;;;;6.28;69.14;94918.50;5053531;28;20260;-71
2021/12/25 07:27:35;;;;;;;15.45;9.18;;;;;;;5.82;70.96;94929.41;5054087;28;20669;-74
2021/12/25 07:30:03;;;;;;;13.10;8.65;;;;;;;6.03;69.97;94936.63;5054891;28;20636;-73
2021/12/25 07:32:30;;;;;;;15.10;8.88;;;;;;;6.08;69.93;94927.28;5054692;28;20199;-72
2021/12/25 07:34:57;;;;;;;18.70;10.45;;;;;;;5.94;71.45;94931.75;5054315;28;20254;-71
2021/12/25 07:37:24;;;;;;;16.08;10.32;;;;;;;6.13;70.31;94947.41;5054534;28;20199;-73
2021/12/25 07:39:51;;;;;;;16.98;9.60;;;;;;;5.90;70.90;94937.72;5053124;28;20249;-74
2021/12/25 07:42:19;;;;;;;15.80;10.10;;;;;;;6.02;71.09;94934.97;5054151;28;20202;-74
2021/12/25 07:44:52;;;;;;;15.27;10.57;;;;;;;6.06;70.26;94944.16;5057288;28;20243;-73
2021/12/25 07:47:21;;;;;;;15.45;9.80;;;;;;;6.17;70.86;94938.91;5057513;28;20697;-72
2021/12/25 07:49:48;;;;;;;19.48;9.43;;;;;;;6.45;69.45;94936.66;5057167;28;20275;-71
2021/12/25 07:52:15;;;;;;;15.80;10.15;;;;;;;7.29;67.96;94938.25;5057922;28;20206;-71
2021/12/25 07:54:42;;;;;;;12.13;8.75;;;;;;;8.75;62.23;94939.56;5057611;28;20237;-74
2021/12/25 07:57:09;;;;;;;14.65;9.48;;;;;;;8.65;62.06;94937.34;5056788;28;20202;-72
2021/12/25 07:59:37;;;;;;;16.90;10.20;;;;;;;8.79;62.17;94931.00;5057913;28;20207;-73
2021/12/25 08:02:04;;;;;;;16.30;9.90;;;;;;;9.31;60.50;94931.16;5057335;28;20634;-72
2021/12/25 08:04:31;;;;;;;12.63;9.70;;;;;;;9.73;58.37;94939.13;5058012;28;20202;-73
2021/12/25 08:06:57;;;;;;;18.00;9.60;;;;;;;9.96;57.03;94944.28;5057345;28;20202;-73
2021/12/25 08:09:28;;;;;;;21.35;10.23;;;;;;;10.38;56.83;94951.38;5057442;28;20202;-71
2021/12/25 08:11:56;;;;;;;11.80;9.23;;;;;;;11.95;53.57;94938.66;5057144;28;20250;-72
2021/12/25 08:14:25;;;;;;;13.05;9.85;;;;;;;13.62;47.88;94925.31;5056741;28;20241;-70
2021/12/25 08:16:54;;;;;;;73.30;33.25;;;;;;;13.83;47.04;94928.59;5057424;28;20261;-73
2021/12/25 08:19:21;;;;;;;30.45;16.20;;;;;;;15.88;43.97;94914.41;5055996;28;20198;-71
2021/12/25 08:21:48;;;;;;;13.23;9.05;;;;;;;16.57;40.63;94913.84;5056870;28;20205;-72
2021/12/25 08:24:16;;;;;;;13.80;8.85;;;;;;;17.00;39.93;94915.50;5057982;28;20236;-73
2021/12/25 08:26:44;;;;;;;13.93;8.88;;;;;;;16.75;39.77;94917.88;5056331;28;20202;-69
2021/12/25 08:29:11;;;;;;;8.25;7.18;;;;;;;15.71;41.39;94917.09;5056483;28;20198;-74
2021/12/25 08:31:38;;;;;;;11.75;7.90;;;;;;;14.22;44.28;94936.03;5056206;28;20646;-73
2021/12/25 08:34:06;;;;;;;12.30;7.90;;;;;;;13.56;45.63;94934.13;5056481;28;20256;-73
2021/12/25 08:36:33;;;;;;;11.57;8.02;;;;;;;13.43;46.52;94935.56;5057041;28;20237;-73
2021/12/25 08:39:00;;;;;;;12.05;7.93;;;;;;;14.48;43.80;94924.53;5056515;28;20640;-74
2021/12/25 08:41:29;;;;;;;12.75;8.68;;;;;;;14.09;44.76;94924.78;5056390;28;20525;-72
2021/12/25 08:43:59;;;;;;;13.13;8.65;;;;;;;13.81;45.60;94930.38;5057022;28;20205;-74
2021/12/25 08:46:43;;;;;;;9.63;8.18;;;;;;;12.94;47.29;94911.44;5055802;28;20195;-74
2021/12/25 08:49:15;;;;;;;13.82;8.30;;;;;;;11.81;49.70;94910.41;5055888;28;20233;-70
2021/12/25 08:51:43;;;;;;;11.57;7.82;;;;;;;11.47;50.95;94915.97;5056759;28;20245;-73
2021/12/25 08:54:10;;;;;;;9.98;7.75;;;;;;;11.08;52.20;94908.16;5056728;28;20243;-74
2021/12/25 08:56:37;;;;;;;10.73;6.68;;;;;;;10.67;53.45;94907.97;5055254;28;20227;-73
2021/12/25 08:59:04;;;;;;;12.88;7.07;;;;;;;11.19;53.55;94906.03;5056661;28;20684;-73
2021/12/25 09:01:31;;;;;;;7.63;6.95;;;;;;;13.24;48.60;94897.31;5053978;28;20205;-73
2021/12/25 09:03:59;;;;;;;9.15;7.75;;;;;;;14.43;45.39;94893.25;5054820;28;20206;-73
2021/12/25 09:06:27;;;;;;;14.27;7.55;;;;;;;15.30;43.17;94887.72;5056041;28;20697;-75
2021/12/25 09:08:54;;;;;;;10.85;7.10;;;;;;;16.15;41.80;94876.94;5055844;28;20565;-74
2021/12/25 09:11:21;;;;;;;7.50;6.25;;;;;;;15.96;41.93;94873.81;5055275;28;20303;-72
2021/12/25 09:13:48;;;;;;;9.65;6.80;;;;;;;15.84;41.31;94866.81;5055832;28;20669;-74
2021/12/25 09:16:15;;;;;;;7.68;6.88;;;;;;;14.00;44.21;94892.81;5056086;28;20230;-74
2021/12/25 09:18:43;;;;;;;10.43;7.57;;;;;;;12.26;48.14;94892.38;5053701;28;20225;-70
2021/12/25 09:21:10;;;;;;;12.25;7.63;;;;;;;11.08;51.58;94893.75;5053802;28;20207;-69
2021/12/25 09:23:38;;;;;;;8.40;7.20;;;;;;;10.50;53.64;94884.88;5053690;28;20264;-70
2021/12/25 09:26:05;;;;;;;9.57;7.55;;;;;;;9.86;55.22;94882.03;5054638;28;20214;-71
2021/12/25 09:28:32;;;;;;;9.15;7.00;;;;;;;9.78;55.57;94863.69;5055511;28;20635;-75
2021/12/25 09:30:59;;;;;;;11.90;7.40;;;;;;;9.65;56.52;94878.47;5055730;28;20221;-72
2021/12/25 09:33:26;;;;;;;10.20;7.25;;;;;;;9.48;57.01;94871.41;5055818;28;20203;-74
2021/12/25 09:35:53;;;;;;;12.27;7.85;;;;;;;9.45;57.49;94876.59;5056171;28;20234;-71
2021/12/25 09:38:19;;;;;;;12.93;6.35;;;;;;;9.41;58.15;94869.94;5054768;28;20263;-72
2021/12/25 09:40:48;;;;;;;13.20;7.00;;;;;;;9.74;57.39;94857.06;5055690;28;20259;-75
2021/12/25 09:43:17;;;;;;;8.02;6.45;;;;;;;9.76;57.07;94861.19;5055962;28;20257;-72
2021/12/25 09:45:44;;;;;;;9.88;7.32;;;;;;;9.59;57.19;94853.31;5055496;28;20204;-71
2021/12/25 09:48:11;;;;;;;12.52;6.32;;;;;;;9.24;58.14;94857.00;5054953;28;20210;-74
2021/12/25 09:50:38;;;;;;;10.90;7.38;;;;;;;9.41;58.11;94859.81;5053838;28;20226;-72
2021/12/25 09:53:07;;;;;;;8.85;7.18;;;;;;;9.27;58.56;94845.94;5055866;28;20209;-73
2021/12/25 09:55:34;;;;;;;8.15;6.78;;;;;;;8.97;58.83;94833.34;5054870;28;21705;-72
2021/12/25 09:58:03;;;;;;;9.18;7.70;;;;;;;9.13;59.42;94843.84;5055818;28;20264;-71
2021/12/25 10:00:30;;;;;;;11.57;7.40;;;;;;;9.32;59.01;94834.75;5055421;28;20209;-73
2021/12/25 10:02:58;;;;;;;12.02;7.97;;;;;;;9.76;57.83;94840.06;5055469;28;20206;-73
2021/12/25 10:05:28;;;;;;;10.13;7.43;;;;;;;9.97;57.57;94839.31;5055043;28;20195;-75
2021/12/25 10:08:07;;;;;;;12.90;7.75;;;;;;;10.40;56.36;94838.66;5054671;28;20206;-75
2021/12/25 10:10:41;;;;;;;13.75;7.75;;;;;;;10.49;56.05;94827.34;5055042;28;20201;-76
2021/12/25 10:13:26;;;;;;;10.13;7.75;;;;;;;10.39;55.55;94826.03;5055365;28;20280;-70
2021/12/25 10:15:56;;;;;;;10.00;8.45;;;;;;;10.61;55.45;94821.81;5054029;28;21198;-73
2021/12/25 10:18:31;;;;;;;10.35;8.73;;;;;;;10.68;55.37;94818.13;5054675;28;20875;-71
2021/12/25 10:21:15;;;;;;;14.45;9.18;;;;;;;10.78;54.49;94819.47;5054661;28;20197;-72
2021/12/25 10:23:42;;;;;;;13.45;9.43;;;;;;;10.47;55.20;94813.88;5054501;28;20253;-70
2021/12/25 10:26:09;;;;;;;20.08;11.02;;;;;;;10.38;55.74;94809.13;5055787;28;20207;-73
2021/12/25 10:28:40;;;;;;;23.02;11.43;;;;;;;10.19;55.95;94799.63;5054138;28;20248;-74
2021/12/25 10:31:10;;;;;;;19.38;10.70;;;;;;;10.09;56.66;94798.28;5054042;28;20226;-75
2021/12/25 10:33:41;;;;;;;19.02;11.52;;;;;;;9.98;56.69;94791.94;5055584;28;20666;-74
2021/12/25 10:36:10;;;;;;;29.25;11.25;;;;;;;10.00;57.19;94798.59;5055288;28;20238;-70
2021/12/25 10:38:38;;;;;;;28.50;12.45;;;;;;;9.72;57.99;94805.53;5054378;28;20198;-72
2021/12/25 10:41:14;;;;;;;26.50;14.63;;;;;;;9.76;57.99;94810.44;5054385;28;20285;-72
2021/12/25 10:43:43;;;;;;;27.13;15.15;;;;;;;9.71;58.50;94803.88;5054682;28;20909;-73
2021/12/25 10:46:11;;;;;;;24.40;14.48;;;;;;;9.76;58.01;94794.41;5054725;28;20688;-72
2021/12/25 10:48:38;;;;;;;26.90;14.30;;;;;;;9.51;58.83;94797.75;5035619;28;20211;-74
2021/12/25 10:51:05;;;;;;;26.75;14.60;;;;;;;9.58;59.12;94795.03;5055044;28;20194;-73
2021/12/25 10:53:34;;;;;;;21.67;13.98;;;;;;;9.72;58.88;94787.75;5054392;28;20313;-70
2021/12/25 10:56:10;;;;;;;22.77;13.10;;;;;;;9.91;58.89;94778.63;5054682;28;20280;-71
2021/12/25 10:58:38;;;;;;;20.73;12.65;;;;;;;9.96;58.27;94781.00;5054925;28;20672;-71
2021/12/25 11:01:08;;;;;;;28.17;14.93;;;;;;;9.99;58.10;94781.72;5054480;28;20206;-75
2021/12/25 11:03:37;;;;;;;21.23;13.48;;;;;;;10.06;58.04;94778.09;5054867;28;20214;-74
2021/12/25 11:06:07;;;;;;;24.88;12.57;;;;;;;10.05;58.15;94771.34;5054135;28;20679;-70
2021/12/25 11:08:34;;;;;;;31.73;14.45;;;;;;;10.14;58.06;94760.03;5054558;28;20720;-72
2021/12/25 11:11:04;;;;;;;22.77;15.38;;;;;;;10.33;57.80;94763.59;5054560;28;20238;-73
2021/12/25 11:13:34;;;;;;;20.08;14.05;;;;;;;10.37;57.70;94757.50;5054251;28;20770;-73
2021/12/25 11:16:05;;;;;;;20.83;14.20;;;;;;;10.55;57.32;94749.19;5055660;28;20311;-74
2021/12/25 11:18:50;;;;;;;30.88;14.45;;;;;;;10.50;56.85;94745.16;5055009;28;20213;-72
2021/12/25 11:21:17;;;;;;;25.70;13.85;;;;;;;10.46;57.04;94741.06;5058272;28;20198;-73
2021/12/25 11:23:45;;;;;;;26.27;14.50;;;;;;;10.22;57.32;94718.25;5058234;28;20198;-71
2021/12/25 11:26:13;;;;;;;22.65;15.18;;;;;;;10.28;57.86;94727.38;5058264;28;20201;-73
2021/12/25 11:28:40;;;;;;;28.05;13.80;;;;;;;10.17;58.39;94727.72;5056999;28;20223;-72
2021/12/25 11:31:06;;;;;;;28.27;15.30;;;;;;;10.22;58.26;94727.59;5057063;28;20708;-72
2021/12/25 11:33:35;;;;;;;25.02;14.50;;;;;;;10.33;58.41;94719.56;5057970;28;20205;-72
2021/12/25 11:36:02;;;;;;;23.95;14.82;;;;;;;10.42;58.28;94724.28;5058151;28;20226;-72
2021/12/25 11:38:29;;;;;;;28.77;13.63;;;;;;;10.50;57.71;94718.03;5057439;28;20222;-76
2021/12/25 11:41:06;;;;;;;29.75;15.93;;;;;;;10.21;58.57;94716.59;5057629;28;20247;-71
2021/12/25 11:43:40;;;;;;;29.10;14.65;;;;;;;10.20;59.08;94709.03;5057830;28;20202;-72
2021/12/25 11:46:08;;;;;;;26.05;14.05;;;;;;;10.08;59.40;94699.34;5057308;28;20198;-72
2021/12/25 11:48:38;;;;;;;24.13;14.93;;;;;;;10.10;59.46;94723.78;5057694;28;20689;-73
2021/12/25 11:51:06;;;;;;;25.13;13.93;;;;;;;10.19;59.32;94708.22;5058126;28;20277;-71
2021/12/25 11:53:46;;;;;;;26.15;12.55;;;;;;;10.35;59.09;94705.94;5057363;28;20691;-73
2021/12/25 11:56:28;;;;;;;27.77;12.70;;;;;;;10.39;59.12;94704.94;5056398;28;20226;-73
2021/12/25 11:58:56;;;;;;;18.92;12.23;;;;;;;10.51;58.91;94703.63;5057541;28;20255;-72
2021/12/25 12:01:26;;;;;;;18.48;11.50;;;;;;;10.64;58.47;94704.78;5057167;28;21343;-72
2021/12/25 12:03:57;;;;;;;24.67;10.63;;;;;;;10.65;58.42;94701.34;5056938;28;20273;-72
2021/12/25 12:06:59;;;;;;;26.33;11.88;;;;;;;10.75;58.40;94702.66;5057356;28;20203;-73
2021/12/25 12:09:28;;;;;;;15.13;10.80;;;;;;;10.72;58.34;94712.94;5056320;28;20221;-71
2021/12/25 12:12:15;;;;;;;19.77;11.05;;;;;;;10.78;58.11;94706.78;5056731;28;20291;-74
2021/12/25 12:14:42;;;;;;;18.63;10.45;;;;;;;10.82;57.86;94698.16;5056952;28;20206;-73
2021/12/25 12:17:10;;;;;;;18.05;10.80;;;;;;;10.79;57.87;94704.19;5057126;28;20231;-72
2021/12/25 12:19:51;;;;;;;18.30;10.98;;;;;;;10.96;57.98;94700.97;5057139;28;20241;-73
2021/12/25 12:22:47;;;;;;;15.10;10.25;;;;;;;10.90;57.76;94702.03;5056418;28;20206;-73
2021/12/25 12:25:24;;;;;;;15.77;8.48;;;;;;;10.76;57.74;94706.84;5056921;28;20202;-75
2021/12/25 12:27:55;;;;;;;12.48;7.53;;;;;;;10.73;57.88;94708.69;5057173;28;20205;-71
2021/12/25 12:30:45;;;;;;;20.58;8.48;;;;;;;10.78;57.79;94712.69;5055178;28;20206;-74